UCT Elwood — V7HW9 — position and weather

sailwx.info

Track history (hours):
 
Tides and Currents Weather Stations Pressure Air Temp Water Temp Dewpoint Dewpoint Depression Visibility Wind Speed Wind Dir Waves Ship Positions

UCT Elwood

Last reported at 2016-Jul-30 04:30 UTC. Time now 2016-Jul-30 05:23 UTC.
Position N 31°18' E 032°22'.

Type: Ship (hazmat cat B). MMSI: 538002324.

Date/timePositionNaut miles runAvg speedWind from/ knotsBaromVisibWave heightAir tempDewpointWater temp
2016-Jul-30 04:30N 31°18' E 032°22'6 6.0
2016-Jul-30 03:32N 31°23' E 032°22'14 1.3
2016-Jul-29 16:14N 31°33' E 032°10'812.0
2016-Jul-29 15:33N 31°39' E 032°04'1413.8
2016-Jul-29 14:30N 31°48' E 031°50'1414.0
2016-Jul-29 13:31N 31°52' E 031°35'1713.8
2016-Jul-29 12:17N 31°57' E 031°15'1113.8
2016-Jul-29 11:30N 32°00' E 031°03'1313.6
2016-Jul-29 10:32N 32°04' E 030°48'1313.6
2016-Jul-29 09:33N 32°08' E 030°33'1413.6
2016-Jul-29 08:30N 32°12' E 030°17'47013.4
2016-Jul-27 21:32N 34°30' E 021°19'29113.2
2016-Jul-26 23:33N 35°55' E 015°39'1313.1
2016-Jul-26 22:33N 35°59' E 015°23'1313.3
2016-Jul-26 21:33N 36°03' E 015°08'1313.4
2016-Jul-26 20:34N 36°07' E 014°52'1313.3
2016-Jul-26 19:34N 36°11' E 014°36'1313.4
2016-Jul-26 18:34N 36°15' E 014°21'1413.8
2016-Jul-26 17:34N 36°21' E 014°05'1413.7
2016-Jul-26 16:33N 36°26' E 013°49'1413.5
2016-Jul-26 15:33N 36°31' E 013°34'1313.6
2016-Jul-26 14:34N 36°37' E 013°18'1414.1
2016-Jul-26 13:34N 36°42' E 013°02'1413.7
2016-Jul-26 12:33N 36°48' E 012°47'1313.3
2016-Jul-26 11:33N 36°53' E 012°31'40413.0
2016-Jul-25 04:33N 37°12' E 004°06'1912.6
2016-Jul-25 03:04N 37°09' E 003°43'713.3
2016-Jul-25 02:33N 37°08' E 003°34'2713.6
2016-Jul-25 00:33N 37°02' E 003°01'13212.8
2016-Jul-24 14:13N 36°38' E 000°19'9812.7
2016-Jul-24 06:31N 36°20' W 001°41'4812.1
2016-Jul-24 02:33N 36°14' W 002°40'12313.2
2016-Jul-23 17:14N 36°05' W 005°12'811.6
2016-Jul-23 16:33N 36°04' W 005°22'5 4.1
2016-Jul-23 15:25N 36°09' W 005°23'0 0.0
2016-Jul-23 14:28N 36°09' W 005°23'0 0.1
2016-Jul-23 13:31N 36°09' W 005°23'0 0.1
2016-Jul-23 12:28N 36°09' W 005°23'0 0.1
2016-Jul-23 11:31N 36°09' W 005°23'0 0.2
2016-Jul-23 10:31N 36°09' W 005°23'0 0.0
2016-Jul-23 09:25N 36°09' W 005°23'0 0.1
2016-Jul-23 08:31N 36°09' W 005°23'0 0.0
2016-Jul-23 07:31N 36°09' W 005°23'0 0.0
2016-Jul-23 06:31N 36°09' W 005°23'0 0.1
2016-Jul-23 04:31N 36°09' W 005°23'2 1.7
2016-Jul-23 03:33N 36°07' W 005°23'3 3.4
2016-Jul-23 02:33N 36°04' W 005°22'9 8.6
2016-Jul-23 01:33N 35°57' W 005°29'1311.8
2016-Jul-23 00:26N 35°55' W 005°45'2712.7
2016-Jul-22 22:17N 35°54' W 006°19'1013.1
2016-Jul-22 21:32N 35°55' W 006°31'2613.0
2016-Jul-22 19:32N 35°58' W 007°03'1313.3
2016-Jul-22 18:33N 35°59' W 007°19'1313.3
2016-Jul-22 17:33N 36°00' W 007°35'36013.1
2016-Jul-21 14:04N 36°37' W 014°59'33012.9
2016-Jul-20 12:33N 37°10' W 021°50'5312.7
2016-Jul-20 08:23N 37°16' W 022°57'2612.4
2016-Jul-20 06:18N 37°18' W 023°29'1012.7
2016-Jul-20 05:33N 37°19' W 023°41'1212.6
2016-Jul-20 04:33N 37°21' W 023°56'  
Track history (hours):
 
Tides and Currents Weather Stations Pressure Air Temp Water Temp Dewpoint Dewpoint Depression Visibility Wind Speed Wind Dir Waves Ship Positions

UCT Elwood

Last reported at 2016-Jul-30 04:30 UTC. Time now 2016-Jul-30 05:23 UTC.
Position N 31°18' E 032°22'.

Type: Ship (hazmat cat B). MMSI: 538002324.

Date/timePositionNaut miles runAvg speedWind from/ knotsBaromVisibWave heightAir tempDewpointWater temp
2016-Jul-30 04:30N 31°18' E 032°22'6 6.0
2016-Jul-30 03:32N 31°23' E 032°22'14 1.3
2016-Jul-29 16:14N 31°33' E 032°10'812.0
2016-Jul-29 15:33N 31°39' E 032°04'1413.8
2016-Jul-29 14:30N 31°48' E 031°50'1414.0
2016-Jul-29 13:31N 31°52' E 031°35'1713.8
2016-Jul-29 12:17N 31°57' E 031°15'1113.8
2016-Jul-29 11:30N 32°00' E 031°03'1313.6
2016-Jul-29 10:32N 32°04' E 030°48'1313.6
2016-Jul-29 09:33N 32°08' E 030°33'1413.6
2016-Jul-29 08:30N 32°12' E 030°17'47013.4
2016-Jul-27 21:32N 34°30' E 021°19'29113.2
2016-Jul-26 23:33N 35°55' E 015°39'1313.1
2016-Jul-26 22:33N 35°59' E 015°23'1313.3
2016-Jul-26 21:33N 36°03' E 015°08'1313.4
2016-Jul-26 20:34N 36°07' E 014°52'1313.3
2016-Jul-26 19:34N 36°11' E 014°36'1313.4
2016-Jul-26 18:34N 36°15' E 014°21'1413.8
2016-Jul-26 17:34N 36°21' E 014°05'1413.7
2016-Jul-26 16:33N 36°26' E 013°49'1413.5
2016-Jul-26 15:33N 36°31' E 013°34'1313.6
2016-Jul-26 14:34N 36°37' E 013°18'1414.1
2016-Jul-26 13:34N 36°42' E 013°02'1413.7
2016-Jul-26 12:33N 36°48' E 012°47'1313.3
2016-Jul-26 11:33N 36°53' E 012°31'40413.0
2016-Jul-25 04:33N 37°12' E 004°06'1912.6
2016-Jul-25 03:04N 37°09' E 003°43'713.3
2016-Jul-25 02:33N 37°08' E 003°34'2713.6
2016-Jul-25 00:33N 37°02' E 003°01'13212.8
2016-Jul-24 14:13N 36°38' E 000°19'9812.7
2016-Jul-24 06:31N 36°20' W 001°41'4812.1
2016-Jul-24 02:33N 36°14' W 002°40'12313.2
2016-Jul-23 17:14N 36°05' W 005°12'811.6
2016-Jul-23 16:33N 36°04' W 005°22'5 4.1
2016-Jul-23 15:25N 36°09' W 005°23'0 0.0
2016-Jul-23 14:28N 36°09' W 005°23'0 0.1
2016-Jul-23 13:31N 36°09' W 005°23'0 0.1
2016-Jul-23 12:28N 36°09' W 005°23'0 0.1
2016-Jul-23 11:31N 36°09' W 005°23'0 0.2
2016-Jul-23 10:31N 36°09' W 005°23'0 0.0
2016-Jul-23 09:25N 36°09' W 005°23'0 0.1
2016-Jul-23 08:31N 36°09' W 005°23'0 0.0
2016-Jul-23 07:31N 36°09' W 005°23'0 0.0
2016-Jul-23 06:31N 36°09' W 005°23'0 0.1
2016-Jul-23 04:31N 36°09' W 005°23'2 1.7
2016-Jul-23 03:33N 36°07' W 005°23'3 3.4
2016-Jul-23 02:33N 36°04' W 005°22'9 8.6
2016-Jul-23 01:33N 35°57' W 005°29'1311.8
2016-Jul-23 00:26N 35°55' W 005°45'2712.7
2016-Jul-22 22:17N 35°54' W 006°19'1013.1
2016-Jul-22 21:32N 35°55' W 006°31'2613.0
2016-Jul-22 19:32N 35°58' W 007°03'1313.3
2016-Jul-22 18:33N 35°59' W 007°19'1313.3
2016-Jul-22 17:33N 36°00' W 007°35'36013.1
2016-Jul-21 14:04N 36°37' W 014°59'33012.9
2016-Jul-20 12:33N 37°10' W 021°50'5312.7
2016-Jul-20 08:23N 37°16' W 022°57'2612.4
2016-Jul-20 06:18N 37°18' W 023°29'1012.7
2016-Jul-20 05:33N 37°19' W 023°41'1212.6
2016-Jul-20 04:33N 37°21' W 023°56'  

Dump ship's entire track history